createdAt,value
2022-11-12T00:02:40.996Z,9.76
2022-11-12T00:05:44.672Z,9.80
2022-11-12T00:08:47.297Z,9.81
2022-11-12T00:11:49.908Z,9.87
2022-11-12T00:14:52.550Z,9.83
2022-11-12T00:17:56.585Z,9.95
2022-11-12T00:20:59.196Z,9.98
2022-11-12T00:24:01.946Z,10.01
2022-11-12T00:27:04.605Z,10.03
2022-11-12T00:30:08.651Z,10.09
2022-11-12T00:33:12.615Z,10.00
2022-11-12T00:36:15.277Z,9.97
2022-11-12T00:39:17.900Z,10.18
2022-11-12T00:42:20.522Z,10.26
2022-11-12T00:45:23.271Z,10.00
2022-11-12T00:48:27.605Z,10.18
2022-11-12T00:51:30.419Z,10.32
2022-11-12T00:54:33.141Z,10.40
2022-11-12T00:57:35.778Z,10.40
2022-11-12T01:00:38.481Z,10.56
2022-11-12T01:03:43.070Z,10.62
2022-11-12T01:06:45.824Z,10.66
2022-11-12T01:09:48.465Z,10.63
2022-11-12T01:12:51.138Z,10.69
2022-11-12T01:15:53.763Z,10.66
2022-11-12T01:18:59.522Z,10.61
2022-11-12T01:22:02.145Z,10.60
2022-11-12T01:25:05.745Z,10.55
2022-11-12T01:28:08.376Z,10.57
2022-11-12T01:31:12.795Z,10.44
2022-11-12T01:34:16.842Z,10.48
2022-11-12T01:37:19.532Z,10.23
2022-11-12T01:40:22.174Z,10.29
2022-11-12T01:43:24.823Z,10.34
2022-11-12T01:46:30.896Z,10.24
2022-11-12T01:49:46.092Z,10.22
2022-11-12T01:52:56.165Z,10.40
2022-11-12T01:56:00.048Z,10.07
2022-11-12T01:59:06.132Z,10.23
2022-11-12T02:02:09.692Z,10.34
2022-11-12T02:05:14.991Z,10.30
2022-11-12T02:08:18.293Z,10.40
2022-11-12T02:11:22.321Z,10.23
2022-11-12T02:14:24.948Z,10.39
2022-11-12T02:17:27.639Z,10.44
2022-11-12T02:20:36.006Z,10.41
2022-11-12T02:23:39.951Z,10.50
2022-11-12T02:26:45.925Z,10.54
2022-11-12T02:29:48.572Z,10.40
2022-11-12T02:32:51.205Z,10.35
2022-11-12T02:35:53.872Z,10.55
2022-11-12T02:38:58.715Z,10.50
2022-11-12T02:42:01.371Z,10.49
2022-11-12T02:45:04.530Z,10.47
2022-11-12T02:48:07.530Z,10.53
2022-11-12T02:51:10.161Z,10.52
2022-11-12T02:54:14.139Z,10.54
2022-11-12T02:57:16.775Z,10.53
2022-11-12T03:00:19.606Z,10.16
2022-11-12T03:03:22.407Z,10.09
2022-11-12T03:06:25.016Z,10.35
2022-11-12T03:09:29.048Z,10.35
2022-11-12T03:12:31.712Z,10.33
2022-11-12T03:15:34.337Z,10.24
2022-11-12T03:18:37.603Z,10.19
2022-11-12T03:21:40.207Z,10.11
2022-11-12T03:24:44.185Z,10.13
2022-11-12T03:27:46.846Z,10.13
2022-11-12T03:30:49.924Z,10.07
2022-11-12T03:33:52.541Z,10.02
2022-11-12T03:36:55.143Z,9.91
2022-11-12T03:39:59.141Z,9.93
2022-11-12T03:43:01.835Z,9.97
2022-11-12T03:46:04.561Z,9.89
2022-11-12T03:49:07.149Z,9.79
2022-11-12T03:52:09.766Z,9.85
2022-11-12T03:55:14.166Z,9.88
2022-11-12T03:58:16.804Z,9.82
2022-11-12T04:01:19.423Z,9.79
2022-11-12T04:04:22.065Z,9.80
2022-11-12T04:07:42.433Z,9.26
2022-11-12T04:10:46.476Z,9.51
2022-11-12T04:13:49.070Z,9.49
2022-11-12T04:17:09.096Z,9.57
2022-11-12T04:20:29.372Z,9.51
2022-11-12T04:23:31.983Z,9.56
2022-11-12T04:26:34.969Z,9.53
2022-11-12T04:29:55.213Z,9.48
2022-11-12T04:32:58.406Z,9.47
2022-11-12T04:36:01.063Z,9.43
2022-11-12T04:39:04.006Z,9.33
2022-11-12T04:42:26.931Z,9.28
2022-11-12T04:45:29.572Z,9.24
2022-11-12T04:48:32.300Z,9.17
2022-11-12T04:51:52.584Z,9.08
2022-11-12T04:54:55.759Z,9.12
2022-11-12T04:58:00.937Z,9.11
2022-11-12T05:01:03.887Z,9.06
2022-11-12T05:04:06.747Z,9.11
2022-11-12T05:07:09.535Z,9.06
2022-11-12T05:10:12.283Z,8.96
2022-11-12T05:13:16.275Z,8.92
2022-11-12T05:16:18.909Z,8.90
2022-11-12T05:19:21.561Z,8.72
2022-11-12T05:22:42.515Z,8.70
2022-11-12T05:25:46.781Z,8.55
2022-11-12T05:28:50.729Z,8.60
2022-11-12T05:31:53.365Z,8.60
2022-11-12T05:34:55.937Z,8.59
2022-11-12T05:37:58.586Z,8.52
2022-11-12T05:41:01.249Z,8.52
2022-11-12T05:44:05.658Z,8.52
2022-11-12T05:47:08.491Z,8.51
2022-11-12T05:50:11.244Z,8.50
2022-11-12T05:53:13.842Z,8.37
2022-11-12T05:56:16.468Z,8.28
2022-11-12T05:59:20.431Z,8.29
2022-11-12T06:02:23.111Z,8.23
2022-11-12T06:05:25.786Z,8.08
2022-11-12T06:08:28.697Z,8.05
2022-11-12T06:11:31.566Z,8.05
2022-11-12T06:14:35.514Z,8.01
2022-11-12T06:17:38.162Z,8.15
2022-11-12T06:20:40.980Z,8.10
2022-11-12T06:23:43.604Z,8.07
2022-11-12T06:26:46.247Z,8.03
2022-11-12T06:29:50.278Z,8.11
2022-11-12T06:32:53.125Z,8.17
2022-11-12T06:36:02.809Z,8.02
2022-11-12T06:39:05.820Z,8.10
2022-11-12T06:42:08.443Z,7.91
2022-11-12T06:45:12.722Z,7.98
2022-11-12T06:48:15.337Z,7.93
2022-11-12T06:51:19.831Z,8.09
2022-11-12T06:54:22.532Z,8.12
2022-11-12T06:57:25.576Z,8.09
2022-11-12T07:00:29.649Z,8.07
2022-11-12T07:03:32.239Z,8.12
2022-11-12T07:06:35.478Z,8.03
2022-11-12T07:09:38.139Z,8.00
2022-11-12T07:12:40.751Z,8.13
2022-11-12T07:15:44.733Z,8.11
2022-11-12T07:18:48.192Z,7.97
2022-11-12T07:21:50.819Z,8.11
2022-11-12T07:24:53.731Z,8.22
2022-11-12T07:27:56.361Z,8.18
2022-11-12T07:31:01.989Z,8.20
2022-11-12T07:34:04.733Z,8.21
2022-11-12T07:37:07.386Z,8.19
2022-11-12T07:40:10.778Z,8.21
2022-11-12T07:43:13.382Z,8.18
2022-11-12T07:46:19.093Z,8.21
2022-11-12T07:49:21.712Z,8.22
2022-11-12T07:52:24.366Z,8.27
2022-11-12T07:55:27.004Z,8.29
2022-11-12T07:58:32.177Z,8.39
2022-11-12T08:01:37.372Z,8.41
2022-11-12T08:04:40.232Z,8.46
2022-11-12T08:07:42.913Z,8.54
2022-11-12T08:10:45.624Z,8.63
2022-11-12T08:13:48.806Z,8.64
2022-11-12T08:16:52.784Z,8.71
2022-11-12T08:19:55.804Z,8.79
2022-11-12T08:23:01.640Z,8.82
2022-11-12T08:26:06.919Z,8.85
2022-11-12T08:29:09.560Z,8.89
2022-11-12T08:32:13.565Z,8.84
2022-11-12T08:35:16.228Z,8.92
2022-11-12T08:38:19.037Z,8.97
2022-11-12T08:41:21.662Z,8.94
2022-11-12T08:44:24.334Z,8.92
2022-11-12T08:47:28.296Z,8.93
2022-11-12T08:50:31.793Z,8.98
2022-11-12T08:53:34.553Z,9.00
2022-11-12T08:56:37.152Z,9.11
2022-11-12T08:59:39.798Z,9.17
2022-11-12T09:02:43.793Z,9.19
2022-11-12T09:05:46.965Z,9.32
2022-11-12T09:08:49.582Z,9.36
2022-11-12T09:11:52.210Z,9.52
2022-11-12T09:14:59.569Z,9.66
2022-11-12T09:18:15.776Z,9.83
2022-11-12T09:21:21.554Z,9.59
2022-11-12T09:24:24.132Z,9.91
2022-11-12T09:27:27.986Z,10.06
2022-11-12T09:30:30.591Z,10.12
2022-11-12T09:33:35.309Z,10.22
2022-11-12T09:36:40.002Z,10.33
2022-11-12T09:39:42.793Z,10.32
2022-11-12T09:42:48.406Z,10.38
2022-11-12T09:46:13.626Z,10.50
2022-11-12T09:49:20.892Z,10.64
2022-11-12T09:52:27.878Z,10.63
2022-11-12T09:55:34.297Z,10.74
2022-11-12T09:58:38.197Z,10.59
2022-11-12T10:01:50.965Z,10.64
2022-11-12T10:05:22.447Z,10.85
2022-11-12T10:08:38.381Z,10.94
2022-11-12T10:12:14.191Z,10.99
2022-11-12T10:15:54.171Z,11.06
2022-11-12T10:19:11.480Z,11.08
2022-11-12T10:22:32.576Z,10.95
2022-11-12T10:25:36.311Z,11.35
2022-11-12T10:28:43.412Z,12.83
2022-11-12T10:31:46.238Z,13.63
2022-11-12T10:34:48.859Z,14.54
2022-11-12T10:37:58.430Z,15.25
2022-11-12T10:41:18.611Z,15.92
2022-11-12T10:44:27.567Z,16.32
2022-11-12T10:47:33.433Z,16.69
2022-11-12T10:50:40.952Z,16.78
2022-11-12T10:53:44.891Z,17.62
2022-11-12T10:56:55.034Z,17.89
2022-11-12T11:00:10.260Z,18.43
2022-11-12T11:03:20.589Z,19.21
2022-11-12T11:06:26.842Z,19.14
2022-11-12T11:09:31.467Z,19.02
2022-11-12T11:12:35.375Z,18.99
2022-11-12T11:15:40.287Z,19.01
2022-11-12T11:18:48.380Z,18.87
2022-11-12T11:22:04.117Z,17.66
2022-11-12T11:25:20.535Z,16.59
2022-11-12T11:28:39.334Z,15.53
2022-11-12T11:31:50.434Z,15.19
2022-11-12T11:35:07.366Z,15.41
2022-11-12T11:38:22.145Z,15.54
2022-11-12T11:41:49.884Z,15.14
2022-11-12T11:45:02.362Z,14.68
2022-11-12T11:48:13.891Z,14.73
2022-11-12T11:51:32.665Z,14.75
2022-11-12T11:54:51.193Z,14.90
2022-11-12T11:58:06.227Z,14.78
2022-11-12T12:01:19.564Z,14.77
2022-11-12T12:04:43.629Z,14.82
2022-11-12T12:07:55.972Z,14.85
2022-11-12T12:11:09.106Z,14.64
2022-11-12T12:14:29.285Z,14.76
2022-11-12T12:17:48.838Z,14.86
2022-11-12T12:20:59.645Z,14.88
2022-11-12T12:24:06.891Z,14.98
2022-11-12T12:27:13.461Z,14.92
2022-11-12T12:30:21.098Z,14.87
2022-11-12T12:33:30.395Z,14.76
2022-11-12T12:36:37.545Z,14.80
2022-11-12T12:39:48.945Z,14.73
2022-11-12T12:42:57.528Z,14.76
2022-11-12T12:46:02.937Z,14.88
2022-11-12T12:49:08.204Z,15.05
2022-11-12T12:52:13.672Z,14.91
2022-11-12T12:55:35.090Z,16.07
2022-11-12T12:58:45.339Z,18.47
2022-11-12T13:01:57.350Z,20.49
2022-11-12T13:04:59.965Z,19.20
2022-11-12T13:08:06.199Z,18.37
2022-11-12T13:11:09.254Z,17.44
2022-11-12T13:14:45.000Z,16.83
2022-11-12T13:17:52.880Z,16.15
2022-11-12T13:21:12.867Z,15.69
2022-11-12T13:24:15.463Z,15.38
2022-11-12T13:27:58.749Z,15.06
2022-11-12T13:31:04.626Z,14.82
2022-11-12T13:34:14.754Z,14.59
2022-11-12T13:37:21.805Z,14.49
2022-11-12T13:40:44.358Z,14.46
2022-11-12T13:43:48.223Z,14.23
2022-11-12T13:46:53.632Z,14.14
2022-11-12T13:49:59.549Z,13.98
2022-11-12T13:53:02.764Z,13.91
2022-11-12T13:56:05.499Z,13.83
2022-11-12T13:59:15.846Z,13.75
2022-11-12T14:02:24.788Z,13.67
2022-11-12T14:05:30.006Z,13.64
2022-11-12T14:08:56.132Z,13.51
2022-11-12T14:12:17.381Z,13.44
2022-11-12T14:15:32.361Z,13.40
2022-11-12T14:18:46.653Z,13.34
2022-11-12T14:22:03.361Z,13.23
2022-11-12T14:25:16.592Z,13.26
2022-11-12T14:28:28.710Z,13.15
2022-11-12T14:31:31.878Z,13.08
2022-11-12T14:34:35.956Z,13.00
2022-11-12T14:37:43.665Z,12.98
2022-11-12T14:40:51.357Z,12.87
2022-11-12T14:44:11.418Z,12.86
2022-11-12T14:47:18.952Z,12.78
2022-11-12T14:50:28.524Z,12.69
2022-11-12T14:53:33.920Z,12.67
2022-11-12T14:56:40.588Z,12.59
2022-11-12T14:59:43.193Z,12.46
2022-11-12T15:02:55.603Z,12.37
2022-11-12T15:06:11.586Z,12.31
2022-11-12T15:09:18.650Z,12.22
2022-11-12T15:12:22.675Z,12.13
2022-11-12T15:15:25.291Z,11.96
2022-11-12T15:18:30.336Z,11.97
2022-11-12T15:21:35.013Z,11.92
2022-11-12T15:24:38.953Z,11.80
2022-11-12T15:27:42.958Z,11.68
2022-11-12T15:31:01.493Z,11.60
2022-11-12T15:34:27.792Z,11.47
2022-11-12T15:37:36.989Z,11.38
2022-11-12T15:40:46.943Z,11.29
2022-11-12T15:43:49.577Z,11.32
2022-11-12T15:46:53.348Z,11.17
2022-11-12T15:49:58.715Z,11.14
2022-11-12T15:53:02.715Z,11.05
2022-11-12T15:56:09.494Z,10.98
2022-11-12T15:59:16.274Z,10.96
2022-11-12T16:02:18.958Z,10.95
2022-11-12T16:05:21.561Z,10.84
2022-11-12T16:08:25.545Z,10.85
2022-11-12T16:11:37.300Z,10.81
2022-11-12T16:14:40.157Z,10.75
2022-11-12T16:17:43.023Z,10.67
2022-11-12T16:20:46.965Z,10.63
2022-11-12T16:23:50.926Z,10.55
2022-11-12T16:26:53.913Z,10.51
2022-11-12T16:29:56.525Z,10.47
2022-11-12T16:33:00.182Z,10.37
2022-11-12T16:36:02.882Z,10.43
2022-11-12T16:39:07.217Z,10.30
2022-11-12T16:42:11.103Z,10.26
2022-11-12T16:45:14.234Z,10.18
2022-11-12T16:48:20.105Z,10.17
2022-11-12T16:51:23.900Z,10.15
2022-11-12T16:54:27.897Z,10.15
2022-11-12T16:57:30.501Z,10.13
2022-11-12T17:00:33.264Z,10.10
2022-11-12T17:03:35.883Z,9.96
2022-11-12T17:06:40.837Z,9.93
2022-11-12T17:09:46.270Z,9.82
2022-11-12T17:12:49.437Z,9.84
2022-11-12T17:15:58.821Z,9.93
2022-11-12T17:19:02.505Z,9.84
2022-11-12T17:22:05.127Z,9.88
2022-11-12T17:25:09.965Z,9.76
2022-11-12T17:28:12.726Z,9.68
2022-11-12T17:31:17.430Z,9.58
2022-11-12T17:34:20.022Z,9.51
2022-11-12T17:37:22.669Z,9.35
2022-11-12T17:40:26.641Z,9.31
2022-11-12T17:43:29.814Z,9.39
2022-11-12T17:46:33.151Z,9.32
2022-11-12T17:49:35.773Z,9.21
2022-11-12T17:52:38.366Z,9.21
2022-11-12T17:55:42.477Z,9.23
2022-11-12T17:58:47.089Z,9.21
2022-11-12T18:01:49.674Z,9.19
2022-11-12T18:04:52.291Z,9.13
2022-11-12T18:07:54.905Z,9.01
2022-11-12T18:10:58.994Z,9.04
2022-11-12T18:14:07.508Z,8.98
2022-11-12T18:17:10.345Z,9.02
2022-11-12T18:20:13.228Z,8.99
2022-11-12T18:23:15.839Z,8.89
2022-11-12T18:26:20.788Z,8.87
2022-11-12T18:29:23.393Z,8.80
2022-11-12T18:32:26.003Z,8.79
2022-11-12T18:35:30.053Z,8.75
2022-11-12T18:38:33.963Z,8.63
2022-11-12T18:41:38.023Z,8.65
2022-11-12T18:44:40.685Z,8.66
2022-11-12T18:47:43.369Z,8.70
2022-11-12T18:50:46.014Z,8.68
2022-11-12T18:53:48.898Z,8.74
2022-11-12T18:56:52.852Z,8.68
2022-11-12T18:59:55.864Z,8.56
2022-11-12T19:02:58.502Z,8.41
2022-11-12T19:06:02.850Z,8.48
2022-11-12T19:09:05.890Z,8.54
2022-11-12T19:12:09.906Z,8.66
2022-11-12T19:15:12.842Z,8.77
2022-11-12T19:18:15.472Z,8.84
2022-11-12T19:21:20.137Z,8.87
2022-11-12T19:24:22.736Z,8.91
2022-11-12T19:27:26.721Z,9.04
2022-11-12T19:30:29.338Z,9.07
2022-11-12T19:33:32.142Z,9.11
2022-11-12T19:36:34.758Z,9.13
2022-11-12T19:39:37.405Z,9.18
2022-11-12T19:42:41.387Z,9.16
2022-11-12T19:45:43.992Z,9.15
2022-11-12T19:48:46.754Z,9.07
2022-11-12T19:51:49.397Z,9.07
2022-11-12T19:54:52.040Z,9.08
2022-11-12T19:57:56.089Z,9.05
2022-11-12T20:01:04.791Z,9.07
2022-11-12T20:04:07.505Z,9.09
2022-11-12T20:07:10.457Z,9.09
2022-11-12T20:10:13.138Z,8.97
2022-11-12T20:13:17.247Z,8.88
2022-11-12T20:16:25.179Z,8.87
2022-11-12T20:19:28.310Z,8.85
2022-11-12T20:22:32.347Z,8.77
2022-11-12T20:25:35.346Z,8.70
2022-11-12T20:28:40.753Z,8.73
2022-11-12T20:31:43.389Z,8.70
2022-11-12T20:34:46.060Z,8.58
2022-11-12T20:37:49.994Z,8.50
2022-11-12T20:40:58.578Z,8.46
2022-11-12T20:44:02.836Z,8.46
2022-11-12T20:47:05.552Z,8.48
2022-11-12T20:50:08.551Z,8.56
2022-11-12T20:53:11.174Z,8.39
2022-11-12T20:56:15.360Z,8.37
2022-11-12T20:59:19.345Z,8.37
2022-11-12T21:02:21.926Z,8.32
2022-11-12T21:05:24.732Z,8.27
2022-11-12T21:08:29.033Z,8.23
2022-11-12T21:11:31.909Z,8.11
2022-11-12T21:14:35.890Z,8.08
2022-11-12T21:17:38.526Z,8.01
2022-11-12T21:20:41.164Z,8.14
2022-11-12T21:23:45.489Z,8.11
2022-11-12T21:26:49.437Z,8.03
2022-11-12T21:29:53.423Z,8.09
2022-11-12T21:32:56.049Z,8.04
2022-11-12T21:35:59.452Z,8.09
2022-11-12T21:39:02.442Z,8.08
2022-11-12T21:42:05.286Z,7.97
2022-11-12T21:45:11.032Z,7.92
2022-11-12T21:48:13.664Z,7.86
2022-11-12T21:51:17.671Z,7.80
2022-11-12T21:54:20.295Z,7.82
2022-11-12T21:57:22.947Z,7.85
2022-11-12T22:00:41.649Z,7.90
2022-11-12T22:03:45.541Z,7.75
2022-11-12T22:06:48.272Z,7.69
2022-11-12T22:09:56.322Z,7.66
2022-11-12T22:13:27.835Z,7.65
2022-11-12T22:16:26.254Z,7.70
2022-11-12T22:19:28.929Z,7.72
2022-11-12T22:22:31.565Z,7.72
2022-11-12T22:25:34.560Z,7.74
2022-11-12T22:28:37.760Z,7.79
2022-11-12T22:31:41.739Z,7.82
2022-11-12T22:34:48.403Z,7.77
2022-11-12T22:37:52.128Z,7.66
2022-11-12T22:41:01.838Z,7.56
2022-11-12T22:44:04.538Z,7.68
2022-11-12T22:47:08.535Z,7.59
2022-11-12T22:50:11.338Z,7.55
2022-11-12T22:53:13.924Z,7.51
2022-11-12T22:56:17.941Z,7.67
2022-11-12T22:59:20.635Z,7.69
2022-11-12T23:02:24.626Z,7.68
2022-11-12T23:05:27.278Z,7.64
2022-11-12T23:08:30.451Z,7.71
2022-11-12T23:11:33.249Z,7.68
2022-11-12T23:14:36.158Z,7.48
2022-11-12T23:17:40.114Z,7.43
2022-11-12T23:20:42.738Z,7.43
2022-11-12T23:23:45.373Z,7.44
2022-11-12T23:26:48.040Z,7.45
2022-11-12T23:29:50.635Z,7.54
2022-11-12T23:32:54.606Z,7.58
2022-11-12T23:36:05.076Z,7.44
2022-11-12T23:39:07.902Z,7.55
2022-11-12T23:42:10.553Z,7.45
2022-11-12T23:45:13.263Z,7.49
2022-11-12T23:48:17.307Z,7.46
2022-11-12T23:51:21.944Z,7.42
2022-11-12T23:54:24.548Z,7.31
2022-11-12T23:57:27.153Z,7.34
